sensor_id;sensor_type;location;lat;lon;timestamp;temperature;humidity
19862;DHT22;10093;48.148;8.542;2024-02-16T00:00:39;7.20;99.90
19862;DHT22;10093;48.148;8.542;2024-02-16T00:03:05;7.00;99.90
19862;DHT22;10093;48.148;8.542;2024-02-16T00:05:31;7.00;99.90
19862;DHT22;10093;48.148;8.542;2024-02-16T00:07:56;7.00;99.90
19862;DHT22;10093;48.148;8.542;2024-02-16T00:10:22;7.10;99.90
19862;DHT22;10093;48.148;8.542;2024-02-16T00:12:48;7.20;99.90
19862;DHT22;10093;48.148;8.542;2024-02-16T00:15:13;7.20;99.90
19862;DHT22;10093;48.148;8.542;2024-02-16T00:17:39;7.20;99.90
19862;DHT22;10093;48.148;8.542;2024-02-16T00:20:05;7.20;99.90
19862;DHT22;10093;48.148;8.542;2024-02-16T00:22:33;7.20;99.90
19862;DHT22;10093;48.148;8.542;2024-02-16T00:24:58;7.40;99.90
19862;DHT22;10093;48.148;8.542;2024-02-16T00:27:24;7.40;99.90
19862;DHT22;10093;48.148;8.542;2024-02-16T00:29:49;7.40;99.90
19862;DHT22;10093;48.148;8.542;2024-02-16T00:32:15;7.50;99.90
19862;DHT22;10093;48.148;8.542;2024-02-16T00:34:41;7.60;99.90
19862;DHT22;10093;48.148;8.542;2024-02-16T00:37:07;7.60;99.90
19862;DHT22;10093;48.148;8.542;2024-02-16T00:39:37;7.70;99.90
19862;DHT22;10093;48.148;8.542;2024-02-16T00:42:05;7.60;99.90
19862;DHT22;10093;48.148;8.542;2024-02-16T00:44:31;7.50;99.90
19862;DHT22;10093;48.148;8.542;2024-02-16T00:46:57;7.50;99.90
19862;DHT22;10093;48.148;8.542;2024-02-16T00:49:23;7.60;99.90
19862;DHT22;10093;48.148;8.542;2024-02-16T00:51:49;7.70;99.90
19862;DHT22;10093;48.148;8.542;2024-02-16T00:54:16;7.80;99.90
19862;DHT22;10093;48.148;8.542;2024-02-16T00:56:42;7.80;99.90
19862;DHT22;10093;48.148;8.542;2024-02-16T00:59:08;7.80;99.90
19862;DHT22;10093;48.148;8.542;2024-02-16T01:01:35;7.70;99.90
19862;DHT22;10093;48.148;8.542;2024-02-16T01:04:01;7.90;99.90
19862;DHT22;10093;48.148;8.542;2024-02-16T01:06:27;8.00;99.90
19862;DHT22;10093;48.148;8.542;2024-02-16T01:08:53;8.00;99.90
19862;DHT22;10093;48.148;8.542;2024-02-16T01:11:18;8.00;99.90
19862;DHT22;10093;48.148;8.542;2024-02-16T01:13:46;8.00;99.90
19862;DHT22;10093;48.148;8.542;2024-02-16T01:16:11;8.00;99.90
19862;DHT22;10093;48.148;8.542;2024-02-16T01:18:37;8.00;99.90
19862;DHT22;10093;48.148;8.542;2024-02-16T01:21:04;8.00;99.90
19862;DHT22;10093;48.148;8.542;2024-02-16T01:23:30;8.00;99.90
19862;DHT22;10093;48.148;8.542;2024-02-16T01:25:55;7.90;99.90
19862;DHT22;10093;48.148;8.542;2024-02-16T01:28:21;7.80;99.90
19862;DHT22;10093;48.148;8.542;2024-02-16T01:30:48;7.60;99.90
19862;DHT22;10093;48.148;8.542;2024-02-16T01:33:14;7.50;99.90
19862;DHT22;10093;48.148;8.542;2024-02-16T01:35:40;7.60;99.90
19862;DHT22;10093;48.148;8.542;2024-02-16T01:38:05;7.50;99.90
19862;DHT22;10093;48.148;8.542;2024-02-16T01:40:31;7.60;99.90
19862;DHT22;10093;48.148;8.542;2024-02-16T01:42:57;7.40;99.90
19862;DHT22;10093;48.148;8.542;2024-02-16T01:45:23;7.60;99.90
19862;DHT22;10093;48.148;8.542;2024-02-16T01:47:50;7.50;99.90
19862;DHT22;10093;48.148;8.542;2024-02-16T01:50:17;7.10;99.90
19862;DHT22;10093;48.148;8.542;2024-02-16T01:52:44;6.90;99.90
19862;DHT22;10093;48.148;8.542;2024-02-16T01:55:11;6.80;99.90
19862;DHT22;10093;48.148;8.542;2024-02-16T01:57:42;6.70;99.90
19862;DHT22;10093;48.148;8.542;2024-02-16T02:00:08;6.90;99.90
19862;DHT22;10093;48.148;8.542;2024-02-16T02:02:37;6.80;99.90
19862;DHT22;10093;48.148;8.542;2024-02-16T02:05:03;6.70;99.90
19862;DHT22;10093;48.148;8.542;2024-02-16T02:07:29;6.70;99.90
19862;DHT22;10093;48.148;8.542;2024-02-16T02:09:55;6.80;99.90
19862;DHT22;10093;48.148;8.542;2024-02-16T02:12:21;7.00;99.90
19862;DHT22;10093;48.148;8.542;2024-02-16T02:14:48;6.80;99.90
19862;DHT22;10093;48.148;8.542;2024-02-16T02:17:13;6.90;99.90
19862;DHT22;10093;48.148;8.542;2024-02-16T02:19:39;6.90;99.90
19862;DHT22;10093;48.148;8.542;2024-02-16T02:22:09;6.70;99.90
19862;DHT22;10093;48.148;8.542;2024-02-16T02:24:35;6.60;99.90
19862;DHT22;10093;48.148;8.542;2024-02-16T02:27:01;6.60;99.90
19862;DHT22;10093;48.148;8.542;2024-02-16T02:29:28;6.60;99.90
19862;DHT22;10093;48.148;8.542;2024-02-16T02:31:53;7.10;99.90
19862;DHT22;10093;48.148;8.542;2024-02-16T02:34:20;7.00;99.90
19862;DHT22;10093;48.148;8.542;2024-02-16T02:36:46;6.90;99.90
19862;DHT22;10093;48.148;8.542;2024-02-16T02:39:11;6.90;99.90
19862;DHT22;10093;48.148;8.542;2024-02-16T02:41:38;6.70;99.90
19862;DHT22;10093;48.148;8.542;2024-02-16T02:44:04;6.50;99.90
19862;DHT22;10093;48.148;8.542;2024-02-16T02:46:30;6.40;99.90
19862;DHT22;10093;48.148;8.542;2024-02-16T02:48:56;6.60;99.90
19862;DHT22;10093;48.148;8.542;2024-02-16T02:51:22;6.50;99.90
19862;DHT22;10093;48.148;8.542;2024-02-16T02:53:47;6.60;99.90
19862;DHT22;10093;48.148;8.542;2024-02-16T02:56:13;6.60;99.90
19862;DHT22;10093;48.148;8.542;2024-02-16T02:58:41;6.50;99.90
19862;DHT22;10093;48.148;8.542;2024-02-16T03:01:07;6.40;99.90
19862;DHT22;10093;48.148;8.542;2024-02-16T03:03:35;6.30;99.90
19862;DHT22;10093;48.148;8.542;2024-02-16T03:06:01;6.10;99.90
19862;DHT22;10093;48.148;8.542;2024-02-16T03:08:27;5.90;99.90
19862;DHT22;10093;48.148;8.542;2024-02-16T03:10:52;5.90;99.90
19862;DHT22;10093;48.148;8.542;2024-02-16T03:13:19;5.80;99.90
19862;DHT22;10093;48.148;8.542;2024-02-16T03:15:45;5.70;99.90
19862;DHT22;10093;48.148;8.542;2024-02-16T03:18:10;5.70;99.90
19862;DHT22;10093;48.148;8.542;2024-02-16T03:20:36;5.70;99.90
19862;DHT22;10093;48.148;8.542;2024-02-16T03:23:02;5.90;99.90
19862;DHT22;10093;48.148;8.542;2024-02-16T03:25:28;6.10;99.90
19862;DHT22;10093;48.148;8.542;2024-02-16T03:27:54;6.20;99.90
19862;DHT22;10093;48.148;8.542;2024-02-16T03:30:20;6.40;99.90
19862;DHT22;10093;48.148;8.542;2024-02-16T03:32:52;6.30;99.90
19862;DHT22;10093;48.148;8.542;2024-02-16T03:35:18;6.40;99.90
19862;DHT22;10093;48.148;8.542;2024-02-16T03:37:44;6.30;99.90
19862;DHT22;10093;48.148;8.542;2024-02-16T03:40:10;6.40;99.90
19862;DHT22;10093;48.148;8.542;2024-02-16T03:42:38;6.40;99.90
19862;DHT22;10093;48.148;8.542;2024-02-16T03:45:04;6.60;99.90
19862;DHT22;10093;48.148;8.542;2024-02-16T03:47:30;6.70;99.90
19862;DHT22;10093;48.148;8.542;2024-02-16T03:49:55;6.70;99.90
19862;DHT22;10093;48.148;8.542;2024-02-16T03:52:21;6.80;99.90
19862;DHT22;10093;48.148;8.542;2024-02-16T03:54:46;6.90;99.90
19862;DHT22;10093;48.148;8.542;2024-02-16T03:57:16;6.70;99.90
19862;DHT22;10093;48.148;8.542;2024-02-16T03:59:45;6.60;99.90
19862;DHT22;10093;48.148;8.542;2024-02-16T04:02:11;6.60;99.90
19862;DHT22;10093;48.148;8.542;2024-02-16T04:04:39;6.70;99.90
19862;DHT22;10093;48.148;8.542;2024-02-16T04:07:04;6.80;99.90
19862;DHT22;10093;48.148;8.542;2024-02-16T04:09:32;6.50;99.90
19862;DHT22;10093;48.148;8.542;2024-02-16T04:11:58;6.30;99.90
19862;DHT22;10093;48.148;8.542;2024-02-16T04:14:23;6.40;99.90
19862;DHT22;10093;48.148;8.542;2024-02-16T04:16:49;6.30;99.90
19862;DHT22;10093;48.148;8.542;2024-02-16T04:19:14;6.20;99.90
19862;DHT22;10093;48.148;8.542;2024-02-16T04:21:40;6.10;99.90
19862;DHT22;10093;48.148;8.542;2024-02-16T04:24:06;6.20;99.90
19862;DHT22;10093;48.148;8.542;2024-02-16T04:26:31;6.30;99.90
19862;DHT22;10093;48.148;8.542;2024-02-16T04:28:57;6.10;99.90
19862;DHT22;10093;48.148;8.542;2024-02-16T04:31:23;6.00;99.90
19862;DHT22;10093;48.148;8.542;2024-02-16T04:33:48;6.30;99.90
19862;DHT22;10093;48.148;8.542;2024-02-16T04:36:14;6.20;99.90
19862;DHT22;10093;48.148;8.542;2024-02-16T04:38:40;6.40;99.90
19862;DHT22;10093;48.148;8.542;2024-02-16T04:41:06;6.30;99.90
19862;DHT22;10093;48.148;8.542;2024-02-16T04:43:33;6.20;99.90
19862;DHT22;10093;48.148;8.542;2024-02-16T04:46:00;6.20;99.90
19862;DHT22;10093;48.148;8.542;2024-02-16T04:48:25;6.10;99.90
19862;DHT22;10093;48.148;8.542;2024-02-16T04:50:51;6.10;99.90
19862;DHT22;10093;48.148;8.542;2024-02-16T04:53:17;6.00;99.90
19862;DHT22;10093;48.148;8.542;2024-02-16T04:55:42;6.30;99.90
19862;DHT22;10093;48.148;8.542;2024-02-16T04:58:08;6.30;99.90
19862;DHT22;10093;48.148;8.542;2024-02-16T05:00:37;6.10;99.90
19862;DHT22;10093;48.148;8.542;2024-02-16T05:03:03;6.20;99.90
19862;DHT22;10093;48.148;8.542;2024-02-16T05:05:29;6.30;99.90
19862;DHT22;10093;48.148;8.542;2024-02-16T05:07:58;6.30;99.90
19862;DHT22;10093;48.148;8.542;2024-02-16T05:10:24;6.20;99.90
19862;DHT22;10093;48.148;8.542;2024-02-16T05:12:50;6.00;99.90
19862;DHT22;10093;48.148;8.542;2024-02-16T05:15:15;6.10;99.90
19862;DHT22;10093;48.148;8.542;2024-02-16T05:17:42;5.90;99.90
19862;DHT22;10093;48.148;8.542;2024-02-16T05:20:12;6.00;99.90
19862;DHT22;10093;48.148;8.542;2024-02-16T05:22:44;5.90;99.90
19862;DHT22;10093;48.148;8.542;2024-02-16T05:25:12;6.10;99.90
19862;DHT22;10093;48.148;8.542;2024-02-16T05:27:37;6.10;99.90
19862;DHT22;10093;48.148;8.542;2024-02-16T05:30:08;6.20;99.90
19862;DHT22;10093;48.148;8.542;2024-02-16T05:32:37;6.10;99.90
19862;DHT22;10093;48.148;8.542;2024-02-16T05:35:07;6.00;99.90
19862;DHT22;10093;48.148;8.542;2024-02-16T05:37:45;6.00;99.90
19862;DHT22;10093;48.148;8.542;2024-02-16T05:40:18;6.00;99.90
19862;DHT22;10093;48.148;8.542;2024-02-16T05:42:47;6.10;99.90
19862;DHT22;10093;48.148;8.542;2024-02-16T05:45:21;6.30;99.90
19862;DHT22;10093;48.148;8.542;2024-02-16T05:47:48;6.40;99.90
19862;DHT22;10093;48.148;8.542;2024-02-16T05:50:15;6.50;99.90
19862;DHT22;10093;48.148;8.542;2024-02-16T05:52:41;6.40;99.90
19862;DHT22;10093;48.148;8.542;2024-02-16T05:55:08;6.50;99.90
19862;DHT22;10093;48.148;8.542;2024-02-16T05:57:34;6.20;99.90
19862;DHT22;10093;48.148;8.542;2024-02-16T06:00:01;6.30;99.90
19862;DHT22;10093;48.148;8.542;2024-02-16T06:02:28;6.50;99.90
19862;DHT22;10093;48.148;8.542;2024-02-16T06:04:53;6.40;99.90
19862;DHT22;10093;48.148;8.542;2024-02-16T06:07:19;6.50;99.90
19862;DHT22;10093;48.148;8.542;2024-02-16T06:09:44;6.60;99.90
19862;DHT22;10093;48.148;8.542;2024-02-16T06:12:10;6.70;99.90
19862;DHT22;10093;48.148;8.542;2024-02-16T06:14:38;6.70;99.90
19862;DHT22;10093;48.148;8.542;2024-02-16T06:17:04;6.70;99.90
19862;DHT22;10093;48.148;8.542;2024-02-16T06:19:29;6.60;99.90
19862;DHT22;10093;48.148;8.542;2024-02-16T06:21:56;6.60;99.90
19862;DHT22;10093;48.148;8.542;2024-02-16T06:24:22;6.60;99.90
19862;DHT22;10093;48.148;8.542;2024-02-16T06:26:48;6.50;99.90
19862;DHT22;10093;48.148;8.542;2024-02-16T06:29:14;6.60;99.90
19862;DHT22;10093;48.148;8.542;2024-02-16T06:31:40;6.60;99.90
19862;DHT22;10093;48.148;8.542;2024-02-16T06:34:05;6.70;99.90
19862;DHT22;10093;48.148;8.542;2024-02-16T06:36:31;6.70;99.90
19862;DHT22;10093;48.148;8.542;2024-02-16T06:38:56;7.00;99.90
19862;DHT22;10093;48.148;8.542;2024-02-16T06:41:22;6.90;99.90
19862;DHT22;10093;48.148;8.542;2024-02-16T06:43:47;6.90;99.90
19862;DHT22;10093;48.148;8.542;2024-02-16T06:46:13;7.00;99.90
19862;DHT22;10093;48.148;8.542;2024-02-16T06:48:39;7.10;99.90
19862;DHT22;10093;48.148;8.542;2024-02-16T06:51:04;6.80;99.90
19862;DHT22;10093;48.148;8.542;2024-02-16T06:53:30;6.60;99.90
19862;DHT22;10093;48.148;8.542;2024-02-16T06:55:55;6.50;99.90
19862;DHT22;10093;48.148;8.542;2024-02-16T06:58:21;6.40;99.90
19862;DHT22;10093;48.148;8.542;2024-02-16T07:00:47;6.50;99.90
19862;DHT22;10093;48.148;8.542;2024-02-16T07:03:13;6.50;99.90
19862;DHT22;10093;48.148;8.542;2024-02-16T07:05:38;6.60;99.90
19862;DHT22;10093;48.148;8.542;2024-02-16T07:08:05;6.70;99.90
19862;DHT22;10093;48.148;8.542;2024-02-16T07:10:33;6.60;99.90
19862;DHT22;10093;48.148;8.542;2024-02-16T07:12:59;6.80;99.90
19862;DHT22;10093;48.148;8.542;2024-02-16T07:15:24;6.90;99.90
19862;DHT22;10093;48.148;8.542;2024-02-16T07:17:51;6.90;99.90
19862;DHT22;10093;48.148;8.542;2024-02-16T07:20:17;6.90;99.90
19862;DHT22;10093;48.148;8.542;2024-02-16T07:22:43;7.00;99.90
19862;DHT22;10093;48.148;8.542;2024-02-16T07:25:11;7.20;99.90
19862;DHT22;10093;48.148;8.542;2024-02-16T07:27:38;7.40;99.90
19862;DHT22;10093;48.148;8.542;2024-02-16T07:30:04;7.50;99.90
19862;DHT22;10093;48.148;8.542;2024-02-16T07:32:30;7.60;99.90
19862;DHT22;10093;48.148;8.542;2024-02-16T07:34:55;7.70;99.90
19862;DHT22;10093;48.148;8.542;2024-02-16T07:37:21;7.90;99.90
19862;DHT22;10093;48.148;8.542;2024-02-16T07:39:46;8.10;99.90
19862;DHT22;10093;48.148;8.542;2024-02-16T07:42:12;8.10;99.90
19862;DHT22;10093;48.148;8.542;2024-02-16T07:44:41;7.90;99.90
19862;DHT22;10093;48.148;8.542;2024-02-16T07:47:07;7.80;99.90
19862;DHT22;10093;48.148;8.542;2024-02-16T07:49:32;8.10;99.90
19862;DHT22;10093;48.148;8.542;2024-02-16T07:51:58;8.50;99.90
19862;DHT22;10093;48.148;8.542;2024-02-16T07:54:24;8.60;99.90
19862;DHT22;10093;48.148;8.542;2024-02-16T07:56:50;8.60;99.90
19862;DHT22;10093;48.148;8.542;2024-02-16T07:59:15;8.70;99.90
19862;DHT22;10093;48.148;8.542;2024-02-16T08:01:42;8.90;99.90
19862;DHT22;10093;48.148;8.542;2024-02-16T08:04:10;8.90;99.90
19862;DHT22;10093;48.148;8.542;2024-02-16T08:06:35;9.10;99.90
19862;DHT22;10093;48.148;8.542;2024-02-16T08:09:01;9.30;99.90
19862;DHT22;10093;48.148;8.542;2024-02-16T08:11:27;9.30;99.90
19862;DHT22;10093;48.148;8.542;2024-02-16T08:13:52;9.50;99.90
19862;DHT22;10093;48.148;8.542;2024-02-16T08:16:18;9.70;99.90
19862;DHT22;10093;48.148;8.542;2024-02-16T08:18:44;9.90;99.90
19862;DHT22;10093;48.148;8.542;2024-02-16T08:21:11;10.20;99.90
19862;DHT22;10093;48.148;8.542;2024-02-16T08:23:36;10.40;99.90
19862;DHT22;10093;48.148;8.542;2024-02-16T08:26:03;10.60;99.90
19862;DHT22;10093;48.148;8.542;2024-02-16T08:28:28;10.80;99.90
19862;DHT22;10093;48.148;8.542;2024-02-16T08:30:54;11.50;99.90
19862;DHT22;10093;48.148;8.542;2024-02-16T08:33:19;12.30;99.90
19862;DHT22;10093;48.148;8.542;2024-02-16T08:35:45;12.80;99.90
19862;DHT22;10093;48.148;8.542;2024-02-16T08:38:10;13.60;99.90
19862;DHT22;10093;48.148;8.542;2024-02-16T08:40:40;14.00;99.90
19862;DHT22;10093;48.148;8.542;2024-02-16T08:43:06;13.70;99.90
19862;DHT22;10093;48.148;8.542;2024-02-16T08:45:33;13.40;99.90
19862;DHT22;10093;48.148;8.542;2024-02-16T08:47:58;13.40;99.90
19862;DHT22;10093;48.148;8.542;2024-02-16T08:50:26;13.30;99.90
19862;DHT22;10093;48.148;8.542;2024-02-16T08:52:52;13.40;99.90
19862;DHT22;10093;48.148;8.542;2024-02-16T08:55:18;13.50;99.90
19862;DHT22;10093;48.148;8.542;2024-02-16T08:57:43;13.80;99.90
19862;DHT22;10093;48.148;8.542;2024-02-16T09:00:09;14.00;99.90
19862;DHT22;10093;48.148;8.542;2024-02-16T09:02:37;15.00;99.90
19862;DHT22;10093;48.148;8.542;2024-02-16T09:05:03;15.30;99.90
19862;DHT22;10093;48.148;8.542;2024-02-16T09:07:29;15.20;99.90
19862;DHT22;10093;48.148;8.542;2024-02-16T09:09:55;15.60;99.90
19862;DHT22;10093;48.148;8.542;2024-02-16T09:12:22;16.10;99.90
19862;DHT22;10093;48.148;8.542;2024-02-16T09:14:47;16.40;99.90
19862;DHT22;10093;48.148;8.542;2024-02-16T09:17:13;17.30;99.90
19862;DHT22;10093;48.148;8.542;2024-02-16T09:19:39;17.50;99.90
19862;DHT22;10093;48.148;8.542;2024-02-16T09:22:04;17.30;99.90
19862;DHT22;10093;48.148;8.542;2024-02-16T09:24:32;17.20;99.90
19862;DHT22;10093;48.148;8.542;2024-02-16T09:26:58;16.90;99.90
19862;DHT22;10093;48.148;8.542;2024-02-16T09:29:29;16.50;99.90
19862;DHT22;10093;48.148;8.542;2024-02-16T09:31:54;16.30;99.90
19862;DHT22;10093;48.148;8.542;2024-02-16T09:34:20;16.20;99.90
19862;DHT22;10093;48.148;8.542;2024-02-16T09:36:45;15.50;99.90
19862;DHT22;10093;48.148;8.542;2024-02-16T09:39:11;15.20;99.90
19862;DHT22;10093;48.148;8.542;2024-02-16T09:41:43;15.20;99.90
19862;DHT22;10093;48.148;8.542;2024-02-16T09:44:11;15.00;99.90
19862;DHT22;10093;48.148;8.542;2024-02-16T09:46:36;14.60;99.90
19862;DHT22;10093;48.148;8.542;2024-02-16T09:49:03;14.50;99.90
19862;DHT22;10093;48.148;8.542;2024-02-16T09:51:29;14.50;99.90
19862;DHT22;10093;48.148;8.542;2024-02-16T09:53:55;14.70;99.90
19862;DHT22;10093;48.148;8.542;2024-02-16T09:56:21;14.80;99.90
19862;DHT22;10093;48.148;8.542;2024-02-16T09:58:47;14.80;99.90
19862;DHT22;10093;48.148;8.542;2024-02-16T10:01:19;14.90;99.90
19862;DHT22;10093;48.148;8.542;2024-02-16T10:03:49;15.20;99.90
19862;DHT22;10093;48.148;8.542;2024-02-16T10:06:16;15.50;99.90
19862;DHT22;10093;48.148;8.542;2024-02-16T10:08:48;16.20;99.90
19862;DHT22;10093;48.148;8.542;2024-02-16T10:11:18;17.20;99.90
19862;DHT22;10093;48.148;8.542;2024-02-16T10:13:57;18.90;99.90
19862;DHT22;10093;48.148;8.542;2024-02-16T10:16:23;20.60;99.90
19862;DHT22;10093;48.148;8.542;2024-02-16T10:18:49;21.80;99.90
19862;DHT22;10093;48.148;8.542;2024-02-16T10:21:27;22.20;99.90
19862;DHT22;10093;48.148;8.542;2024-02-16T10:24:06;22.30;99.90
19862;DHT22;10093;48.148;8.542;2024-02-16T10:26:38;22.40;99.90
19862;DHT22;10093;48.148;8.542;2024-02-16T10:29:18;23.70;99.90
19862;DHT22;10093;48.148;8.542;2024-02-16T10:31:47;24.00;99.90
19862;DHT22;10093;48.148;8.542;2024-02-16T10:34:13;23.50;99.90
19862;DHT22;10093;48.148;8.542;2024-02-16T10:36:39;22.30;99.90
19862;DHT22;10093;48.148;8.542;2024-02-16T10:39:07;21.90;99.90
19862;DHT22;10093;48.148;8.542;2024-02-16T10:41:35;21.20;99.90
19862;DHT22;10093;48.148;8.542;2024-02-16T10:44:02;20.50;99.90
19862;DHT22;10093;48.148;8.542;2024-02-16T10:46:28;22.00;99.90
19862;DHT22;10093;48.148;8.542;2024-02-16T10:48:54;20.80;99.90
19862;DHT22;10093;48.148;8.542;2024-02-16T10:51:24;19.50;99.90
19862;DHT22;10093;48.148;8.542;2024-02-16T10:53:52;21.40;99.90
19862;DHT22;10093;48.148;8.542;2024-02-16T10:59:06;23.40;99.90
19862;DHT22;10093;48.148;8.542;2024-02-16T11:01:43;23.30;99.90
19862;DHT22;10093;48.148;8.542;2024-02-16T11:04:15;24.00;99.90
19862;DHT22;10093;48.148;8.542;2024-02-16T11:06:48;23.30;99.90
19862;DHT22;10093;48.148;8.542;2024-02-16T11:09:43;20.80;99.90
19862;DHT22;10093;48.148;8.542;2024-02-16T11:12:12;20.40;99.90
19862;DHT22;10093;48.148;8.542;2024-02-16T11:14:43;21.20;99.90
19862;DHT22;10093;48.148;8.542;2024-02-16T11:17:15;22.20;99.90
19862;DHT22;10093;48.148;8.542;2024-02-16T11:19:45;23.40;99.90
19862;DHT22;10093;48.148;8.542;2024-02-16T11:22:15;24.30;99.90
19862;DHT22;10093;48.148;8.542;2024-02-16T11:24:45;24.30;99.90
19862;DHT22;10093;48.148;8.542;2024-02-16T11:27:12;23.10;99.90
19862;DHT22;10093;48.148;8.542;2024-02-16T11:29:39;22.50;99.90
19862;DHT22;10093;48.148;8.542;2024-02-16T11:32:06;22.40;99.90
19862;DHT22;10093;48.148;8.542;2024-02-16T11:34:33;22.50;99.90
19862;DHT22;10093;48.148;8.542;2024-02-16T11:37:00;22.20;99.90
19862;DHT22;10093;48.148;8.542;2024-02-16T11:39:26;21.90;99.90
19862;DHT22;10093;48.148;8.542;2024-02-16T11:42:03;21.50;99.90
19862;DHT22;10093;48.148;8.542;2024-02-16T11:44:30;20.40;99.90
19862;DHT22;10093;48.148;8.542;2024-02-16T11:46:57;19.90;99.90
19862;DHT22;10093;48.148;8.542;2024-02-16T11:49:23;19.70;99.90
19862;DHT22;10093;48.148;8.542;2024-02-16T11:51:49;19.60;99.90
19862;DHT22;10093;48.148;8.542;2024-02-16T11:54:15;19.70;99.90
19862;DHT22;10093;48.148;8.542;2024-02-16T11:56:44;19.70;99.90
19862;DHT22;10093;48.148;8.542;2024-02-16T11:59:13;20.20;99.90
19862;DHT22;10093;48.148;8.542;2024-02-16T12:01:54;20.90;99.90
19862;DHT22;10093;48.148;8.542;2024-02-16T12:04:27;21.50;99.90
19862;DHT22;10093;48.148;8.542;2024-02-16T12:06:57;21.60;99.90
19862;DHT22;10093;48.148;8.542;2024-02-16T12:09:23;21.30;99.90
19862;DHT22;10093;48.148;8.542;2024-02-16T12:11:50;21.30;99.90
19862;DHT22;10093;48.148;8.542;2024-02-16T12:14:17;21.50;99.90
19862;DHT22;10093;48.148;8.542;2024-02-16T12:16:46;20.60;99.90
19862;DHT22;10093;48.148;8.542;2024-02-16T12:19:12;20.10;99.90
19862;DHT22;10093;48.148;8.542;2024-02-16T12:21:38;19.80;99.90
19862;DHT22;10093;48.148;8.542;2024-02-16T12:24:04;19.90;99.90
19862;DHT22;10093;48.148;8.542;2024-02-16T12:26:30;20.00;99.90
19862;DHT22;10093;48.148;8.542;2024-02-16T12:28:55;20.10;99.90
19862;DHT22;10093;48.148;8.542;2024-02-16T12:31:21;20.30;99.90
19862;DHT22;10093;48.148;8.542;2024-02-16T12:33:47;20.40;99.90
19862;DHT22;10093;48.148;8.542;2024-02-16T12:36:13;20.70;99.90
19862;DHT22;10093;48.148;8.542;2024-02-16T12:38:40;20.60;99.90
19862;DHT22;10093;48.148;8.542;2024-02-16T12:41:06;20.60;99.90
19862;DHT22;10093;48.148;8.542;2024-02-16T12:43:32;20.30;99.90
19862;DHT22;10093;48.148;8.542;2024-02-16T12:45:57;19.70;99.90
19862;DHT22;10093;48.148;8.542;2024-02-16T12:48:25;19.70;99.90
19862;DHT22;10093;48.148;8.542;2024-02-16T12:50:51;19.70;99.90
19862;DHT22;10093;48.148;8.542;2024-02-16T12:53:17;20.00;99.90
19862;DHT22;10093;48.148;8.542;2024-02-16T12:55:43;19.60;99.90
19862;DHT22;10093;48.148;8.542;2024-02-16T12:58:09;19.30;99.90
19862;DHT22;10093;48.148;8.542;2024-02-16T13:00:35;19.00;99.90
19862;DHT22;10093;48.148;8.542;2024-02-16T13:03:00;18.60;99.90
19862;DHT22;10093;48.148;8.542;2024-02-16T13:05:26;18.60;99.90
19862;DHT22;10093;48.148;8.542;2024-02-16T13:07:52;18.60;99.90
19862;DHT22;10093;48.148;8.542;2024-02-16T13:10:18;18.70;99.90
19862;DHT22;10093;48.148;8.542;2024-02-16T13:12:44;18.70;99.90
19862;DHT22;10093;48.148;8.542;2024-02-16T13:15:10;18.70;99.90
19862;DHT22;10093;48.148;8.542;2024-02-16T13:17:36;18.70;99.90
19862;DHT22;10093;48.148;8.542;2024-02-16T13:20:02;18.40;99.90
19862;DHT22;10093;48.148;8.542;2024-02-16T13:22:35;18.70;99.90
19862;DHT22;10093;48.148;8.542;2024-02-16T13:25:05;18.60;99.90
19862;DHT22;10093;48.148;8.542;2024-02-16T13:27:33;18.60;99.90
19862;DHT22;10093;48.148;8.542;2024-02-16T13:30:02;18.40;99.90
19862;DHT22;10093;48.148;8.542;2024-02-16T13:32:28;18.30;99.90
19862;DHT22;10093;48.148;8.542;2024-02-16T13:34:54;18.20;99.90
19862;DHT22;10093;48.148;8.542;2024-02-16T13:37:19;18.10;99.90
19862;DHT22;10093;48.148;8.542;2024-02-16T13:39:45;18.10;99.90
19862;DHT22;10093;48.148;8.542;2024-02-16T13:42:12;18.10;99.90
19862;DHT22;10093;48.148;8.542;2024-02-16T13:44:39;17.80;99.90
19862;DHT22;10093;48.148;8.542;2024-02-16T13:47:04;17.70;99.90
19862;DHT22;10093;48.148;8.542;2024-02-16T13:49:30;17.70;99.90
19862;DHT22;10093;48.148;8.542;2024-02-16T13:51:56;17.50;99.90
19862;DHT22;10093;48.148;8.542;2024-02-16T13:54:24;17.50;99.90
19862;DHT22;10093;48.148;8.542;2024-02-16T13:56:50;17.40;99.90
19862;DHT22;10093;48.148;8.542;2024-02-16T13:59:16;17.50;99.90
19862;DHT22;10093;48.148;8.542;2024-02-16T14:01:41;17.60;99.90
19862;DHT22;10093;48.148;8.542;2024-02-16T14:04:07;17.30;99.90
19862;DHT22;10093;48.148;8.542;2024-02-16T14:06:33;17.40;99.90
19862;DHT22;10093;48.148;8.542;2024-02-16T14:09:03;17.30;99.90
19862;DHT22;10093;48.148;8.542;2024-02-16T14:11:35;17.20;99.90
19862;DHT22;10093;48.148;8.542;2024-02-16T14:14:01;17.00;99.90
19862;DHT22;10093;48.148;8.542;2024-02-16T14:16:27;16.80;99.90
19862;DHT22;10093;48.148;8.542;2024-02-16T14:18:52;16.40;99.90
19862;DHT22;10093;48.148;8.542;2024-02-16T14:21:18;16.30;99.90
19862;DHT22;10093;48.148;8.542;2024-02-16T14:23:44;16.20;99.90
19862;DHT22;10093;48.148;8.542;2024-02-16T14:26:09;16.00;99.90
19862;DHT22;10093;48.148;8.542;2024-02-16T14:28:35;16.00;99.90
19862;DHT22;10093;48.148;8.542;2024-02-16T14:31:01;15.90;99.90
19862;DHT22;10093;48.148;8.542;2024-02-16T14:33:28;16.00;99.90
19862;DHT22;10093;48.148;8.542;2024-02-16T14:35:53;15.90;99.90
19862;DHT22;10093;48.148;8.542;2024-02-16T14:38:19;15.90;99.90
19862;DHT22;10093;48.148;8.542;2024-02-16T14:40:44;15.30;99.90
19862;DHT22;10093;48.148;8.542;2024-02-16T14:43:10;15.30;99.90
19862;DHT22;10093;48.148;8.542;2024-02-16T14:45:36;15.30;99.90
19862;DHT22;10093;48.148;8.542;2024-02-16T14:48:04;15.40;99.90
19862;DHT22;10093;48.148;8.542;2024-02-16T14:50:30;15.60;99.90
19862;DHT22;10093;48.148;8.542;2024-02-16T14:52:56;15.40;99.90
19862;DHT22;10093;48.148;8.542;2024-02-16T14:55:21;15.80;99.90
19862;DHT22;10093;48.148;8.542;2024-02-16T14:57:48;15.60;99.90
19862;DHT22;10093;48.148;8.542;2024-02-16T15:00:14;15.70;99.90
19862;DHT22;10093;48.148;8.542;2024-02-16T15:02:41;15.80;99.90
19862;DHT22;10093;48.148;8.542;2024-02-16T15:05:08;15.80;99.90
19862;DHT22;10093;48.148;8.542;2024-02-16T15:07:34;15.60;99.90
19862;DHT22;10093;48.148;8.542;2024-02-16T15:10:00;15.50;99.90
19862;DHT22;10093;48.148;8.542;2024-02-16T15:12:26;15.40;99.90
19862;DHT22;10093;48.148;8.542;2024-02-16T15:14:52;15.50;99.90
19862;DHT22;10093;48.148;8.542;2024-02-16T15:17:18;15.50;99.90
19862;DHT22;10093;48.148;8.542;2024-02-16T15:19:45;15.20;99.90
19862;DHT22;10093;48.148;8.542;2024-02-16T15:22:10;15.10;99.90
19862;DHT22;10093;48.148;8.542;2024-02-16T15:24:36;15.00;99.90
19862;DHT22;10093;48.148;8.542;2024-02-16T15:27:02;14.90;99.90
19862;DHT22;10093;48.148;8.542;2024-02-16T15:29:29;14.90;99.90
19862;DHT22;10093;48.148;8.542;2024-02-16T15:31:54;15.10;99.90
19862;DHT22;10093;48.148;8.542;2024-02-16T15:34:22;15.20;99.90
19862;DHT22;10093;48.148;8.542;2024-02-16T15:36:48;15.50;99.90
19862;DHT22;10093;48.148;8.542;2024-02-16T15:39:14;15.60;99.90